sensor_id;sensor_type;location;lat;lon;timestamp;temperature;humidity
11772;DHT22;12556;55.748;13.194;2022-12-07T00:00:02;0.90;99.90
11772;DHT22;12556;55.748;13.194;2022-12-07T00:02:31;0.90;99.90
11772;DHT22;12556;55.748;13.194;2022-12-07T00:04:58;1.00;99.90
11772;DHT22;12556;55.748;13.194;2022-12-07T00:07:24;1.00;99.90
11772;DHT22;12556;55.748;13.194;2022-12-07T00:09:51;1.00;99.90
11772;DHT22;12556;55.748;13.194;2022-12-07T00:12:18;1.10;99.90
11772;DHT22;12556;55.748;13.194;2022-12-07T00:14:46;1.10;99.90
11772;DHT22;12556;55.748;13.194;2022-12-07T00:17:13;1.10;99.90
11772;DHT22;12556;55.748;13.194;2022-12-07T00:19:41;1.20;99.90
11772;DHT22;12556;55.748;13.194;2022-12-07T00:22:08;1.20;99.90
11772;DHT22;12556;55.748;13.194;2022-12-07T00:24:35;1.20;99.90
11772;DHT22;12556;55.748;13.194;2022-12-07T00:27:02;1.30;99.90
11772;DHT22;12556;55.748;13.194;2022-12-07T00:29:29;1.30;99.90
11772;DHT22;12556;55.748;13.194;2022-12-07T00:31:56;1.30;99.90
11772;DHT22;12556;55.748;13.194;2022-12-07T00:34:22;1.30;99.90
11772;DHT22;12556;55.748;13.194;2022-12-07T00:36:51;1.40;99.90
11772;DHT22;12556;55.748;13.194;2022-12-07T00:39:18;1.40;99.90
11772;DHT22;12556;55.748;13.194;2022-12-07T00:41:45;1.50;99.90
11772;DHT22;12556;55.748;13.194;2022-12-07T00:44:13;1.40;99.90
11772;DHT22;12556;55.748;13.194;2022-12-07T00:46:40;1.50;99.90
11772;DHT22;12556;55.748;13.194;2022-12-07T00:49:07;1.60;99.90
11772;DHT22;12556;55.748;13.194;2022-12-07T00:51:33;1.60;99.90
11772;DHT22;12556;55.748;13.194;2022-12-07T00:54:02;1.60;99.90
11772;DHT22;12556;55.748;13.194;2022-12-07T00:56:29;1.60;99.90
11772;DHT22;12556;55.748;13.194;2022-12-07T00:58:57;1.60;99.90
11772;DHT22;12556;55.748;13.194;2022-12-07T01:01:27;1.70;99.90
11772;DHT22;12556;55.748;13.194;2022-12-07T01:03:54;1.70;99.90
11772;DHT22;12556;55.748;13.194;2022-12-07T01:06:22;1.70;99.90
11772;DHT22;12556;55.748;13.194;2022-12-07T01:08:50;1.80;99.90
11772;DHT22;12556;55.748;13.194;2022-12-07T01:11:21;1.80;99.90
11772;DHT22;12556;55.748;13.194;2022-12-07T01:13:50;1.80;99.90
11772;DHT22;12556;55.748;13.194;2022-12-07T01:16:17;1.80;99.90
11772;DHT22;12556;55.748;13.194;2022-12-07T01:18:46;1.80;99.90
11772;DHT22;12556;55.748;13.194;2022-12-07T01:21:15;1.80;99.90
11772;DHT22;12556;55.748;13.194;2022-12-07T01:23:42;1.80;99.90
11772;DHT22;12556;55.748;13.194;2022-12-07T01:26:12;1.80;99.90
11772;DHT22;12556;55.748;13.194;2022-12-07T01:28:40;1.90;99.90
11772;DHT22;12556;55.748;13.194;2022-12-07T01:31:08;1.80;99.90
11772;DHT22;12556;55.748;13.194;2022-12-07T01:33:38;1.90;99.90
11772;DHT22;12556;55.748;13.194;2022-12-07T01:36:07;1.90;99.90
11772;DHT22;12556;55.748;13.194;2022-12-07T01:38:34;1.90;99.90
11772;DHT22;12556;55.748;13.194;2022-12-07T01:41:01;1.90;99.90
11772;DHT22;12556;55.748;13.194;2022-12-07T01:43:31;1.80;99.90
11772;DHT22;12556;55.748;13.194;2022-12-07T01:46:00;1.80;99.90
11772;DHT22;12556;55.748;13.194;2022-12-07T01:48:30;1.80;99.90
11772;DHT22;12556;55.748;13.194;2022-12-07T01:51:00;1.80;99.90
11772;DHT22;12556;55.748;13.194;2022-12-07T01:53:29;1.80;99.90
11772;DHT22;12556;55.748;13.194;2022-12-07T01:55:58;1.80;99.90
11772;DHT22;12556;55.748;13.194;2022-12-07T01:58:25;1.80;99.90
11772;DHT22;12556;55.748;13.194;2022-12-07T02:00:52;1.80;99.90
11772;DHT22;12556;55.748;13.194;2022-12-07T02:03:24;1.80;99.90
11772;DHT22;12556;55.748;13.194;2022-12-07T02:05:53;1.70;99.90
11772;DHT22;12556;55.748;13.194;2022-12-07T02:08:21;1.70;99.90
11772;DHT22;12556;55.748;13.194;2022-12-07T02:10:48;1.70;99.90
11772;DHT22;12556;55.748;13.194;2022-12-07T02:13:17;1.70;99.90
11772;DHT22;12556;55.748;13.194;2022-12-07T02:18:45;1.60;99.90
11772;DHT22;12556;55.748;13.194;2022-12-07T02:21:20;1.60;99.90
11772;DHT22;12556;55.748;13.194;2022-12-07T02:24:14;1.60;99.90
11772;DHT22;12556;55.748;13.194;2022-12-07T02:29:56;1.50;99.90
11772;DHT22;12556;55.748;13.194;2022-12-07T02:32:29;1.50;99.90
11772;DHT22;12556;55.748;13.194;2022-12-07T02:35:02;1.40;99.90
11772;DHT22;12556;55.748;13.194;2022-12-07T02:37:36;1.40;99.90
11772;DHT22;12556;55.748;13.194;2022-12-07T02:40:09;1.40;99.90
11772;DHT22;12556;55.748;13.194;2022-12-07T02:42:41;1.40;99.90
11772;DHT22;12556;55.748;13.194;2022-12-07T02:45:11;1.40;99.90
11772;DHT22;12556;55.748;13.194;2022-12-07T02:47:40;1.40;99.90
11772;DHT22;12556;55.748;13.194;2022-12-07T02:50:08;1.30;99.90
11772;DHT22;12556;55.748;13.194;2022-12-07T02:52:35;1.30;99.90
11772;DHT22;12556;55.748;13.194;2022-12-07T02:55:04;1.30;99.90
11772;DHT22;12556;55.748;13.194;2022-12-07T02:57:49;1.30;99.90
11772;DHT22;12556;55.748;13.194;2022-12-07T03:00:21;1.30;99.90
11772;DHT22;12556;55.748;13.194;2022-12-07T03:02:54;1.20;99.90
11772;DHT22;12556;55.748;13.194;2022-12-07T03:05:40;1.20;99.90
11772;DHT22;12556;55.748;13.194;2022-12-07T03:08:15;1.20;99.90
11772;DHT22;12556;55.748;13.194;2022-12-07T03:10:50;1.20;99.90
11772;DHT22;12556;55.748;13.194;2022-12-07T03:13:25;1.10;99.90
11772;DHT22;12556;55.748;13.194;2022-12-07T03:16:00;1.10;99.90
11772;DHT22;12556;55.748;13.194;2022-12-07T03:18:31;1.10;99.90
11772;DHT22;12556;55.748;13.194;2022-12-07T03:21:01;1.00;99.90
11772;DHT22;12556;55.748;13.194;2022-12-07T03:23:32;1.00;99.90
11772;DHT22;12556;55.748;13.194;2022-12-07T03:26:01;0.90;99.90
11772;DHT22;12556;55.748;13.194;2022-12-07T03:28:32;0.90;99.90
11772;DHT22;12556;55.748;13.194;2022-12-07T03:31:03;1.20;99.90
11772;DHT22;12556;55.748;13.194;2022-12-07T03:33:39;0.80;99.90
11772;DHT22;12556;55.748;13.194;2022-12-07T03:36:10;0.70;99.90
11772;DHT22;12556;55.748;13.194;2022-12-07T03:38:40;0.70;99.90
11772;DHT22;12556;55.748;13.194;2022-12-07T03:41:12;0.60;99.90
11772;DHT22;12556;55.748;13.194;2022-12-07T03:43:41;0.60;99.90
11772;DHT22;12556;55.748;13.194;2022-12-07T03:46:17;0.50;99.90
11772;DHT22;12556;55.748;13.194;2022-12-07T03:48:53;0.50;99.90
11772;DHT22;12556;55.748;13.194;2022-12-07T03:51:25;0.40;99.90
11772;DHT22;12556;55.748;13.194;2022-12-07T03:53:58;0.40;99.90
11772;DHT22;12556;55.748;13.194;2022-12-07T03:56:26;0.40;99.90
11772;DHT22;12556;55.748;13.194;2022-12-07T03:58:54;0.30;99.90
11772;DHT22;12556;55.748;13.194;2022-12-07T04:01:24;0.30;99.90
11772;DHT22;12556;55.748;13.194;2022-12-07T04:03:51;0.20;99.90
11772;DHT22;12556;55.748;13.194;2022-12-07T04:06:18;0.20;99.90
11772;DHT22;12556;55.748;13.194;2022-12-07T04:08:45;0.10;99.90
11772;DHT22;12556;55.748;13.194;2022-12-07T04:11:12;0.00;99.90
11772;DHT22;12556;55.748;13.194;2022-12-07T04:13:38;0.00;99.90
11772;DHT22;12556;55.748;13.194;2022-12-07T04:16:20;0.00;99.90
11772;DHT22;12556;55.748;13.194;2022-12-07T04:18:48;-0.10;99.90
11772;DHT22;12556;55.748;13.194;2022-12-07T04:21:15;-0.10;99.90
11772;DHT22;12556;55.748;13.194;2022-12-07T04:23:42;-0.10;99.90
11772;DHT22;12556;55.748;13.194;2022-12-07T04:26:09;-0.20;99.90
11772;DHT22;12556;55.748;13.194;2022-12-07T04:28:36;-0.20;99.90
11772;DHT22;12556;55.748;13.194;2022-12-07T04:31:03;-0.30;99.90
11772;DHT22;12556;55.748;13.194;2022-12-07T04:33:29;-0.30;99.90
11772;DHT22;12556;55.748;13.194;2022-12-07T04:35:58;-0.30;99.90
11772;DHT22;12556;55.748;13.194;2022-12-07T04:38:24;-0.40;99.90
11772;DHT22;12556;55.748;13.194;2022-12-07T04:40:51;-0.50;99.90
11772;DHT22;12556;55.748;13.194;2022-12-07T04:43:18;-0.50;99.90
11772;DHT22;12556;55.748;13.194;2022-12-07T04:45:46;-0.60;99.90
11772;DHT22;12556;55.748;13.194;2022-12-07T04:48:14;-0.60;99.90
11772;DHT22;12556;55.748;13.194;2022-12-07T04:50:41;-0.70;99.90
11772;DHT22;12556;55.748;13.194;2022-12-07T04:53:09;-0.70;99.90
11772;DHT22;12556;55.748;13.194;2022-12-07T04:55:36;-0.70;99.90
11772;DHT22;12556;55.748;13.194;2022-12-07T04:58:03;-0.80;99.90
11772;DHT22;12556;55.748;13.194;2022-12-07T05:00:30;-0.80;99.90
11772;DHT22;12556;55.748;13.194;2022-12-07T05:02:56;-0.80;99.90
11772;DHT22;12556;55.748;13.194;2022-12-07T05:05:23;-0.90;99.90
11772;DHT22;12556;55.748;13.194;2022-12-07T05:07:50;-0.90;99.90
11772;DHT22;12556;55.748;13.194;2022-12-07T05:10:19;-1.00;99.90
11772;DHT22;12556;55.748;13.194;2022-12-07T05:12:46;-1.00;99.90
11772;DHT22;12556;55.748;13.194;2022-12-07T05:15:13;-1.10;99.90
11772;DHT22;12556;55.748;13.194;2022-12-07T05:17:41;-1.10;99.90
11772;DHT22;12556;55.748;13.194;2022-12-07T05:20:09;-1.20;99.90
11772;DHT22;12556;55.748;13.194;2022-12-07T05:22:36;-1.20;99.90
11772;DHT22;12556;55.748;13.194;2022-12-07T05:25:03;-1.20;99.90
11772;DHT22;12556;55.748;13.194;2022-12-07T05:27:32;-1.20;99.90
11772;DHT22;12556;55.748;13.194;2022-12-07T05:29:59;-1.30;99.90
11772;DHT22;12556;55.748;13.194;2022-12-07T05:32:25;-1.30;99.90
11772;DHT22;12556;55.748;13.194;2022-12-07T05:34:52;-1.30;99.90
11772;DHT22;12556;55.748;13.194;2022-12-07T05:37:20;-1.40;99.90
11772;DHT22;12556;55.748;13.194;2022-12-07T05:39:47;-1.40;99.90
11772;DHT22;12556;55.748;13.194;2022-12-07T05:42:14;-1.40;99.90
11772;DHT22;12556;55.748;13.194;2022-12-07T05:44:44;-1.40;99.90
11772;DHT22;12556;55.748;13.194;2022-12-07T05:47:12;-1.40;99.90
11772;DHT22;12556;55.748;13.194;2022-12-07T05:49:40;-1.50;99.90
11772;DHT22;12556;55.748;13.194;2022-12-07T05:52:07;-1.50;99.90
11772;DHT22;12556;55.748;13.194;2022-12-07T05:54:33;-1.60;99.90
11772;DHT22;12556;55.748;13.194;2022-12-07T05:57:00;-1.00;99.90
11772;DHT22;12556;55.748;13.194;2022-12-07T05:59:27;-1.60;99.90
11772;DHT22;12556;55.748;13.194;2022-12-07T06:01:57;-1.60;99.90
11772;DHT22;12556;55.748;13.194;2022-12-07T06:04:25;-1.60;99.90
11772;DHT22;12556;55.748;13.194;2022-12-07T06:06:53;-1.70;99.90
11772;DHT22;12556;55.748;13.194;2022-12-07T06:09:22;-1.70;99.90
11772;DHT22;12556;55.748;13.194;2022-12-07T06:11:49;-1.70;99.90
11772;DHT22;12556;55.748;13.194;2022-12-07T06:14:33;-1.80;99.90
11772;DHT22;12556;55.748;13.194;2022-12-07T06:17:02;-1.80;99.90
11772;DHT22;12556;55.748;13.194;2022-12-07T06:19:28;-1.90;99.90
11772;DHT22;12556;55.748;13.194;2022-12-07T06:21:56;-1.90;99.90
11772;DHT22;12556;55.748;13.194;2022-12-07T06:24:23;-1.90;99.90
11772;DHT22;12556;55.748;13.194;2022-12-07T06:26:50;-1.90;99.90
11772;DHT22;12556;55.748;13.194;2022-12-07T06:29:17;-2.00;99.90
11772;DHT22;12556;55.748;13.194;2022-12-07T06:31:45;-2.00;99.90
11772;DHT22;12556;55.748;13.194;2022-12-07T06:34:15;-1.90;99.90
11772;DHT22;12556;55.748;13.194;2022-12-07T06:36:42;-2.00;99.90
11772;DHT22;12556;55.748;13.194;2022-12-07T06:39:10;-2.00;99.90
11772;DHT22;12556;55.748;13.194;2022-12-07T06:41:37;-2.00;99.90
11772;DHT22;12556;55.748;13.194;2022-12-07T06:44:04;-2.00;99.90
11772;DHT22;12556;55.748;13.194;2022-12-07T06:46:31;-2.00;99.90
11772;DHT22;12556;55.748;13.194;2022-12-07T06:49:00;-2.00;99.90
11772;DHT22;12556;55.748;13.194;2022-12-07T06:51:29;-2.00;99.90
11772;DHT22;12556;55.748;13.194;2022-12-07T06:53:56;-2.00;99.90
11772;DHT22;12556;55.748;13.194;2022-12-07T06:56:22;-2.00;99.90
11772;DHT22;12556;55.748;13.194;2022-12-07T06:58:50;-1.90;99.90
11772;DHT22;12556;55.748;13.194;2022-12-07T07:01:18;-1.90;99.90
11772;DHT22;12556;55.748;13.194;2022-12-07T07:03:45;-1.90;99.90
11772;DHT22;12556;55.748;13.194;2022-12-07T07:06:13;-1.90;99.90
11772;DHT22;12556;55.748;13.194;2022-12-07T07:08:41;-1.80;99.90
11772;DHT22;12556;55.748;13.194;2022-12-07T07:11:09;-1.70;99.90
11772;DHT22;12556;55.748;13.194;2022-12-07T07:13:36;-1.70;99.90
11772;DHT22;12556;55.748;13.194;2022-12-07T07:16:03;-1.70;99.90
11772;DHT22;12556;55.748;13.194;2022-12-07T07:18:30;-1.60;99.90
11772;DHT22;12556;55.748;13.194;2022-12-07T07:20:57;-1.60;99.90
11772;DHT22;12556;55.748;13.194;2022-12-07T07:23:24;-1.60;99.90
11772;DHT22;12556;55.748;13.194;2022-12-07T07:25:52;-1.60;99.90
11772;DHT22;12556;55.748;13.194;2022-12-07T07:28:19;-1.50;99.90
11772;DHT22;12556;55.748;13.194;2022-12-07T07:30:47;-1.50;99.90
11772;DHT22;12556;55.748;13.194;2022-12-07T07:33:14;-1.50;99.90
11772;DHT22;12556;55.748;13.194;2022-12-07T07:35:40;-1.40;99.90
11772;DHT22;12556;55.748;13.194;2022-12-07T07:38:08;-1.40;99.90
11772;DHT22;12556;55.748;13.194;2022-12-07T07:40:35;-1.40;99.90
11772;DHT22;12556;55.748;13.194;2022-12-07T07:43:03;-1.40;99.90
11772;DHT22;12556;55.748;13.194;2022-12-07T07:45:30;-1.40;99.90
11772;DHT22;12556;55.748;13.194;2022-12-07T07:47:57;-1.30;99.90
11772;DHT22;12556;55.748;13.194;2022-12-07T07:50:24;-1.30;99.90
11772;DHT22;12556;55.748;13.194;2022-12-07T07:52:51;-1.30;99.90
11772;DHT22;12556;55.748;13.194;2022-12-07T07:55:18;-1.30;99.90
11772;DHT22;12556;55.748;13.194;2022-12-07T07:57:46;-1.20;99.90
11772;DHT22;12556;55.748;13.194;2022-12-07T08:00:15;-1.20;99.90
11772;DHT22;12556;55.748;13.194;2022-12-07T08:02:43;-1.20;99.90
11772;DHT22;12556;55.748;13.194;2022-12-07T08:05:11;-1.20;99.90
11772;DHT22;12556;55.748;13.194;2022-12-07T08:07:38;-1.20;99.90
11772;DHT22;12556;55.748;13.194;2022-12-07T08:10:07;-1.20;99.90
11772;DHT22;12556;55.748;13.194;2022-12-07T08:12:36;-1.70;99.90
11772;DHT22;12556;55.748;13.194;2022-12-07T08:15:26;-1.10;99.90
11772;DHT22;12556;55.748;13.194;2022-12-07T08:17:53;-1.10;99.90
11772;DHT22;12556;55.748;13.194;2022-12-07T08:20:20;-1.00;99.90
11772;DHT22;12556;55.748;13.194;2022-12-07T08:22:47;-1.00;99.90
11772;DHT22;12556;55.748;13.194;2022-12-07T08:25:14;-1.00;99.90
11772;DHT22;12556;55.748;13.194;2022-12-07T08:27:41;-1.00;99.90
11772;DHT22;12556;55.748;13.194;2022-12-07T08:30:09;-0.90;99.90
11772;DHT22;12556;55.748;13.194;2022-12-07T08:32:37;-0.90;99.90
11772;DHT22;12556;55.748;13.194;2022-12-07T08:35:04;-0.90;99.90
11772;DHT22;12556;55.748;13.194;2022-12-07T08:37:31;-0.90;99.90
11772;DHT22;12556;55.748;13.194;2022-12-07T08:39:58;-0.90;99.90
11772;DHT22;12556;55.748;13.194;2022-12-07T08:42:25;-0.90;99.90
11772;DHT22;12556;55.748;13.194;2022-12-07T08:44:55;-0.90;99.90
11772;DHT22;12556;55.748;13.194;2022-12-07T08:47:23;-0.90;99.90
11772;DHT22;12556;55.748;13.194;2022-12-07T08:49:53;-0.80;99.90
11772;DHT22;12556;55.748;13.194;2022-12-07T08:52:20;-0.80;99.90
11772;DHT22;12556;55.748;13.194;2022-12-07T08:54:47;-0.80;99.90
11772;DHT22;12556;55.748;13.194;2022-12-07T08:57:14;-0.80;99.90
11772;DHT22;12556;55.748;13.194;2022-12-07T08:59:42;-0.70;99.90
11772;DHT22;12556;55.748;13.194;2022-12-07T09:02:09;-0.70;99.90
11772;DHT22;12556;55.748;13.194;2022-12-07T09:04:36;-0.70;99.90
11772;DHT22;12556;55.748;13.194;2022-12-07T09:07:05;-0.60;99.90
11772;DHT22;12556;55.748;13.194;2022-12-07T09:09:32;-0.60;99.90
11772;DHT22;12556;55.748;13.194;2022-12-07T09:11:59;-0.60;99.90
11772;DHT22;12556;55.748;13.194;2022-12-07T09:14:26;-0.50;99.90
11772;DHT22;12556;55.748;13.194;2022-12-07T09:16:53;-0.50;99.90
11772;DHT22;12556;55.748;13.194;2022-12-07T09:19:20;-0.50;99.90
11772;DHT22;12556;55.748;13.194;2022-12-07T09:21:47;-0.50;99.90
11772;DHT22;12556;55.748;13.194;2022-12-07T09:24:15;-0.40;99.90
11772;DHT22;12556;55.748;13.194;2022-12-07T09:26:42;-0.40;99.90
11772;DHT22;12556;55.748;13.194;2022-12-07T09:29:09;-0.30;99.90
11772;DHT22;12556;55.748;13.194;2022-12-07T09:31:37;-0.30;99.90
11772;DHT22;12556;55.748;13.194;2022-12-07T09:34:04;-0.20;99.90
11772;DHT22;12556;55.748;13.194;2022-12-07T09:36:31;-0.20;99.90
11772;DHT22;12556;55.748;13.194;2022-12-07T09:38:58;-0.20;99.90
11772;DHT22;12556;55.748;13.194;2022-12-07T09:41:27;-0.10;99.90
11772;DHT22;12556;55.748;13.194;2022-12-07T09:44:02;-0.10;99.90
11772;DHT22;12556;55.748;13.194;2022-12-07T09:46:33;0.00;99.90
11772;DHT22;12556;55.748;13.194;2022-12-07T09:49:02;0.00;99.90
11772;DHT22;12556;55.748;13.194;2022-12-07T09:51:29;0.00;99.90
11772;DHT22;12556;55.748;13.194;2022-12-07T09:53:57;0.20;99.90
11772;DHT22;12556;55.748;13.194;2022-12-07T09:56:28;0.20;99.90
11772;DHT22;12556;55.748;13.194;2022-12-07T09:59:00;0.20;99.90
11772;DHT22;12556;55.748;13.194;2022-12-07T10:01:28;0.10;99.90
11772;DHT22;12556;55.748;13.194;2022-12-07T10:04:06;0.10;99.90
11772;DHT22;12556;55.748;13.194;2022-12-07T10:06:36;0.10;99.90
11772;DHT22;12556;55.748;13.194;2022-12-07T10:09:09;0.10;99.90
11772;DHT22;12556;55.748;13.194;2022-12-07T10:11:58;0.20;99.90
11772;DHT22;12556;55.748;13.194;2022-12-07T10:14:27;0.20;99.90
11772;DHT22;12556;55.748;13.194;2022-12-07T10:16:54;0.30;99.90
11772;DHT22;12556;55.748;13.194;2022-12-07T10:19:28;0.30;99.90
11772;DHT22;12556;55.748;13.194;2022-12-07T10:22:00;0.30;99.90
11772;DHT22;12556;55.748;13.194;2022-12-07T10:24:28;0.40;99.90
11772;DHT22;12556;55.748;13.194;2022-12-07T10:26:56;0.40;99.90
11772;DHT22;12556;55.748;13.194;2022-12-07T10:29:28;0.40;99.90
11772;DHT22;12556;55.748;13.194;2022-12-07T10:31:58;0.50;99.90
11772;DHT22;12556;55.748;13.194;2022-12-07T10:34:27;0.50;99.90
11772;DHT22;12556;55.748;13.194;2022-12-07T10:37:14;0.50;99.90
11772;DHT22;12556;55.748;13.194;2022-12-07T10:39:43;0.50;99.90
11772;DHT22;12556;55.748;13.194;2022-12-07T10:42:18;0.50;99.90
11772;DHT22;12556;55.748;13.194;2022-12-07T10:44:46;0.60;99.90
11772;DHT22;12556;55.748;13.194;2022-12-07T10:47:32;0.70;99.90
11772;DHT22;12556;55.748;13.194;2022-12-07T10:50:17;0.70;99.90
11772;DHT22;12556;55.748;13.194;2022-12-07T10:52:58;0.70;99.90
11772;DHT22;12556;55.748;13.194;2022-12-07T10:55:41;0.70;99.90
11772;DHT22;12556;55.748;13.194;2022-12-07T10:58:30;0.70;99.90
11772;DHT22;12556;55.748;13.194;2022-12-07T11:01:02;0.70;99.90
11772;DHT22;12556;55.748;13.194;2022-12-07T11:03:44;0.60;99.90
11772;DHT22;12556;55.748;13.194;2022-12-07T11:06:20;0.80;99.90
11772;DHT22;12556;55.748;13.194;2022-12-07T11:09:02;0.70;99.90
11772;DHT22;12556;55.748;13.194;2022-12-07T11:11:34;0.80;99.90
11772;DHT22;12556;55.748;13.194;2022-12-07T11:14:12;0.80;99.90
11772;DHT22;12556;55.748;13.194;2022-12-07T11:16:51;0.80;99.90
11772;DHT22;12556;55.748;13.194;2022-12-07T11:19:34;0.80;99.90
11772;DHT22;12556;55.748;13.194;2022-12-07T11:22:14;0.80;99.90
11772;DHT22;12556;55.748;13.194;2022-12-07T11:24:48;0.90;99.90
11772;DHT22;12556;55.748;13.194;2022-12-07T11:27:24;0.90;99.90
11772;DHT22;12556;55.748;13.194;2022-12-07T11:30:13;0.80;99.90
11772;DHT22;12556;55.748;13.194;2022-12-07T11:32:50;0.90;99.90
11772;DHT22;12556;55.748;13.194;2022-12-07T11:35:24;0.90;99.90
11772;DHT22;12556;55.748;13.194;2022-12-07T11:37:58;0.90;99.90
11772;DHT22;12556;55.748;13.194;2022-12-07T11:40:29;0.90;99.90
11772;DHT22;12556;55.748;13.194;2022-12-07T11:43:01;0.90;99.90
11772;DHT22;12556;55.748;13.194;2022-12-07T11:45:34;1.00;99.90
11772;DHT22;12556;55.748;13.194;2022-12-07T11:48:03;1.10;99.90
11772;DHT22;12556;55.748;13.194;2022-12-07T11:50:36;1.10;99.90
11772;DHT22;12556;55.748;13.194;2022-12-07T11:53:09;1.10;99.90
11772;DHT22;12556;55.748;13.194;2022-12-07T11:55:42;1.10;99.90
11772;DHT22;12556;55.748;13.194;2022-12-07T11:58:29;1.10;99.90
11772;DHT22;12556;55.748;13.194;2022-12-07T12:01:13;1.00;99.90
11772;DHT22;12556;55.748;13.194;2022-12-07T12:03:44;1.00;99.90
11772;DHT22;12556;55.748;13.194;2022-12-07T12:06:11;1.00;99.90
11772;DHT22;12556;55.748;13.194;2022-12-07T12:08:41;1.00;99.90
11772;DHT22;12556;55.748;13.194;2022-12-07T12:11:17;1.00;99.90
11772;DHT22;12556;55.748;13.194;2022-12-07T12:14:03;1.00;99.90
11772;DHT22;12556;55.748;13.194;2022-12-07T12:20:00;1.00;99.90
11772;DHT22;12556;55.748;13.194;2022-12-07T12:22:34;1.10;99.90
11772;DHT22;12556;55.748;13.194;2022-12-07T12:25:05;1.00;99.90
11772;DHT22;12556;55.748;13.194;2022-12-07T12:27:34;1.00;99.90
11772;DHT22;12556;55.748;13.194;2022-12-07T12:30:05;0.90;99.90
11772;DHT22;12556;55.748;13.194;2022-12-07T12:32:37;0.90;99.90
11772;DHT22;12556;55.748;13.194;2022-12-07T12:35:28;0.90;99.90
11772;DHT22;12556;55.748;13.194;2022-12-07T12:38:26;0.90;99.90
11772;DHT22;12556;55.748;13.194;2022-12-07T12:40:53;0.80;99.90
11772;DHT22;12556;55.748;13.194;2022-12-07T12:43:46;0.90;99.90
11772;DHT22;12556;55.748;13.194;2022-12-07T12:46:50;0.90;99.90
11772;DHT22;12556;55.748;13.194;2022-12-07T12:49:38;0.90;99.90
11772;DHT22;12556;55.748;13.194;2022-12-07T12:58:39;0.70;99.90
11772;DHT22;12556;55.748;13.194;2022-12-07T13:07:52;0.60;99.90
11772;DHT22;12556;55.748;13.194;2022-12-07T13:10:38;0.60;99.90
11772;DHT22;12556;55.748;13.194;2022-12-07T13:13:29;0.50;99.90
11772;DHT22;12556;55.748;13.194;2022-12-07T13:16:36;0.50;99.90
11772;DHT22;12556;55.748;13.194;2022-12-07T13:22:49;0.30;99.90
11772;DHT22;12556;55.748;13.194;2022-12-07T13:25:23;0.30;99.90
11772;DHT22;12556;55.748;13.194;2022-12-07T13:27:57;0.30;99.90
11772;DHT22;12556;55.748;13.194;2022-12-07T13:30:28;0.30;99.90
11772;DHT22;12556;55.748;13.194;2022-12-07T13:32:58;0.20;99.90
11772;DHT22;12556;55.748;13.194;2022-12-07T13:35:33;0.20;99.90
11772;DHT22;12556;55.748;13.194;2022-12-07T13:38:02;0.20;99.90
11772;DHT22;12556;55.748;13.194;2022-12-07T13:40:30;0.20;99.90
11772;DHT22;12556;55.748;13.194;2022-12-07T13:43:00;0.30;99.90
11772;DHT22;12556;55.748;13.194;2022-12-07T13:45:29;0.30;99.90
11772;DHT22;12556;55.748;13.194;2022-12-07T13:48:19;0.20;99.90
11772;DHT22;12556;55.748;13.194;2022-12-07T13:50:53;0.10;99.90
11772;DHT22;12556;55.748;13.194;2022-12-07T13:53:20;0.00;99.90
11772;DHT22;12556;55.748;13.194;2022-12-07T13:55:47;0.00;99.90
11772;DHT22;12556;55.748;13.194;2022-12-07T13:58:16;0.00;99.90
11772;DHT22;12556;55.748;13.194;2022-12-07T14:00:44;-0.10;99.90
11772;DHT22;12556;55.748;13.194;2022-12-07T14:03:26;-0.10;99.90
11772;DHT22;12556;55.748;13.194;2022-12-07T14:06:13;-0.10;99.90
11772;DHT22;12556;55.748;13.194;2022-12-07T14:08:41;-0.10;99.90
11772;DHT22;12556;55.748;13.194;2022-12-07T14:11:16;-0.10;99.90
11772;DHT22;12556;55.748;13.194;2022-12-07T14:13:58;-0.10;99.90
11772;DHT22;12556;55.748;13.194;2022-12-07T14:16:28;-0.20;99.90
11772;DHT22;12556;55.748;13.194;2022-12-07T14:18:56;-0.20;99.90
11772;DHT22;12556;55.748;13.194;2022-12-07T14:21:25;-0.20;99.90
11772;DHT22;12556;55.748;13.194;2022-12-07T14:24:09;-0.30;99.90
11772;DHT22;12556;55.748;13.194;2022-12-07T14:26:37;-0.30;99.90
11772;DHT22;12556;55.748;13.194;2022-12-07T14:29:32;-0.30;99.90
11772;DHT22;12556;55.748;13.194;2022-12-07T14:32:20;-0.30;99.90
11772;DHT22;12556;55.748;13.194;2022-12-07T14:34:56;-0.40;99.90
11772;DHT22;12556;55.748;13.194;2022-12-07T14:37:24;-0.40;99.90
11772;DHT22;12556;55.748;13.194;2022-12-07T14:39:51;-0.40;99.90
11772;DHT22;12556;55.748;13.194;2022-12-07T14:42:18;-0.40;99.90
11772;DHT22;12556;55.748;13.194;2022-12-07T14:44:46;-0.40;99.90
11772;DHT22;12556;55.748;13.194;2022-12-07T14:47:13;-0.40;99.90
11772;DHT22;12556;55.748;13.194;2022-12-07T14:49:40;-0.40;99.90
11772;DHT22;12556;55.748;13.194;2022-12-07T14:52:11;-0.40;99.90
11772;DHT22;12556;55.748;13.194;2022-12-07T14:54:41;-0.50;99.90
11772;DHT22;12556;55.748;13.194;2022-12-07T14:57:08;-0.40;99.90
11772;DHT22;12556;55.748;13.194;2022-12-07T14:59:36;-0.40;99.90
11772;DHT22;12556;55.748;13.194;2022-12-07T15:02:04;-0.40;99.90
11772;DHT22;12556;55.748;13.194;2022-12-07T15:04:31;-0.30;99.90
11772;DHT22;12556;55.748;13.194;2022-12-07T15:06:59;-0.30;99.90
11772;DHT22;12556;55.748;13.194;2022-12-07T15:09:26;-0.20;99.90
11772;DHT22;12556;55.748;13.194;2022-12-07T15:11:53;-0.20;99.90
11772;DHT22;12556;55.748;13.194;2022-12-07T15:14:20;-0.10;99.90
11772;DHT22;12556;55.748;13.194;2022-12-07T15:16:47;-0.20;99.90
11772;DHT22;12556;55.748;13.194;2022-12-07T15:19:17;-0.10;99.90
11772;DHT22;12556;55.748;13.194;2022-12-07T15:21:44;0.10;99.90
11772;DHT22;12556;55.748;13.194;2022-12-07T15:24:11;0.10;99.90
11772;DHT22;12556;55.748;13.194;2022-12-07T15:26:39;0.20;99.90
11772;DHT22;12556;55.748;13.194;2022-12-07T15:29:07;0.20;99.90
11772;DHT22;12556;55.748;13.194;2022-12-07T15:31:34;0.20;99.90
11772;DHT22;12556;55.748;13.194;2022-12-07T15:34:01;0.20;99.90
11772;DHT22;12556;55.748;13.194;2022-12-07T15:36:31;0.20;99.90
11772;DHT22;12556;55.748;13.194;2022-12-07T15:38:58;0.20;99.90
11772;DHT22;12556;55.748;13.194;2022-12-07T15:41:26;0.20;99.90
11772;DHT22;12556;55.748;13.194;2022-12-07T15:43:52;0.20;99.90
11772;DHT22;12556;55.748;13.194;2022-12-07T15:46:39;0.30;99.90
11772;DHT22;12556;55.748;13.194;2022-12-07T15:49:10;0.30;99.90
11772;DHT22;12556;55.748;13.194;2022-12-07T15:51:39;0.30;99.90
11772;DHT22;12556;55.748;13.194;2022-12-07T15:54:05;0.30;99.90
11772;DHT22;12556;55.748;13.194;2022-12-07T15:56:32;0.30;99.90
11772;DHT22;12556;55.748;13.194;2022-12-07T15:58:59;0.20;99.90
11772;DHT22;12556;55.748;13.194;2022-12-07T16:01:26;0.20;99.90
11772;DHT22;12556;55.748;13.194;2022-12-07T16:03:53;0.10;99.90
11772;DHT22;12556;55.748;13.194;2022-12-07T16:06:21;0.10;99.90
11772;DHT22;12556;55.748;13.194;2022-12-07T16:08:49;0.20;99.90
11772;DHT22;12556;55.748;13.194;2022-12-07T16:11:16;0.20;99.90